Time;durP1;ratioP1;P1;durP2;ratioP2;P2;SDS_P1;SDS_P2;PMS_P1;PMS_P2;Temp;Humidity;BMP_temperature;BMP_pressure;BME280_temperature;BME280_humidity;BME280_pressure;Samples;Min_cycle;Max_cycle;Signal;HPM_P1;HPM_P2
2023/08/08 00:00:10;;;;;;;3.17;1.90;;;16.80;49.20;;;;;;20471;6854;338902;-71
2023/08/08 00:02:36;;;;;;;2.40;1.40;;;16.90;49.50;;;;;;20702;6839;117594;-71
2023/08/08 00:05:02;;;;;;;1.80;1.70;;;16.60;49.70;;;;;;20728;6839;120371;-71
2023/08/08 00:07:30;;;;;;;1.70;1.60;;;16.50;49.50;;;;;;20726;6839;118102;-71
2023/08/08 00:09:53;;;;;;;1.87;1.67;;;16.30;49.90;;;;;;20532;6835;281713;-71
2023/08/08 00:12:19;;;;;;;2.00;1.90;;;16.50;50.10;;;;;;20534;6835;307075;-71
2023/08/08 00:14:44;;;;;;;1.90;1.70;;;16.80;49.70;;;;;;20501;6839;282681;-70
2023/08/08 00:17:10;;;;;;;1.90;1.80;;;17.00;49.30;;;;;;20519;6837;321058;-71
2023/08/08 00:19:35;;;;;;;1.83;1.73;;;17.20;49.00;;;;;;20729;6839;117515;-72
2023/08/08 00:22:01;;;;;;;1.97;1.87;;;17.00;49.10;;;;;;20729;6838;117183;-71
2023/08/08 00:24:27;;;;;;;3.50;1.90;;;16.30;50.00;;;;;;20732;6838;116970;-71
2023/08/08 00:26:53;;;;;;;1.70;1.60;;;16.30;50.00;;;;;;20669;6854;117329;-71
2023/08/08 00:29:19;;;;;;;1.92;1.83;;;16.20;51.40;;;;;;20510;6839;337152;-71
2023/08/08 00:31:46;;;;;;;2.95;1.85;;;16.20;50.80;;;;;;20517;6839;337633;-72
2023/08/08 00:34:12;;;;;;;2.00;1.60;;;16.60;50.30;;;;;;20520;6839;317330;-72
2023/08/08 00:36:38;;;;;;;2.00;1.80;;;16.90;49.80;;;;;;20525;6834;315943;-71
2023/08/08 00:39:04;;;;;;;1.93;1.67;;;17.10;49.60;;;;;;20521;6839;307571;-71
2023/08/08 00:41:30;;;;;;;7.03;1.70;;;17.30;49.30;;;;;;20750;6834;117050;-70
2023/08/08 00:43:55;;;;;;;2.17;1.90;;;17.10;49.40;;;;;;20520;6839;280439;-72
2023/08/08 00:46:21;;;;;;;1.77;1.67;;;17.10;49.70;;;;;;20735;6834;117089;-71
2023/08/08 00:48:46;;;;;;;1.48;1.40;;;16.90;49.70;;;;;;20710;6839;117550;-71
2023/08/08 00:51:12;;;;;;;1.80;1.70;;;16.60;50.00;;;;;;20538;6834;277116;-71
2023/08/08 00:53:39;;;;;;;1.90;1.80;;;16.80;50.20;;;;;;20680;6854;123549;-70
2023/08/08 00:56:04;;;;;;;1.40;1.30;;;16.70;50.10;;;;;;20728;6839;117116;-70
2023/08/08 00:58:30;;;;;;;2.35;1.60;;;16.50;50.40;;;;;;20725;6839;117618;-71
2023/08/08 01:00:59;;;;;;;1.40;1.30;;;16.10;50.80;;;;;;20723;6835;118505;-70
2023/08/08 01:03:22;;;;;;;1.90;1.80;;;16.10;50.80;;;;;;20731;6835;117059;-72
2023/08/08 01:05:47;;;;;;;2.67;1.70;;;16.00;51.00;;;;;;20726;6839;117599;-70
2023/08/08 01:08:13;;;;;;;1.80;1.70;;;15.90;51.10;;;;;;20525;6835;277877;-71
2023/08/08 01:10:39;;;;;;;1.98;1.60;;;16.50;50.40;;;;;;20504;6835;306220;-71
2023/08/08 01:13:12;;;;;;;2.00;1.90;;;16.50;50.60;;;;;;20729;6839;117758;-71
2023/08/08 01:15:37;;;;;;;1.90;1.80;;;16.60;50.40;;;;;;20510;6835;307347;-71
2023/08/08 01:18:03;;;;;;;1.85;1.75;;;16.70;50.40;;;;;;20467;6854;308562;-71
2023/08/08 01:20:28;;;;;;;1.60;1.50;;;17.00;50.00;;;;;;20723;6839;118214;-71
2023/08/08 01:23:04;;;;;;;1.90;1.77;;;16.90;50.00;;;;;;20452;6839;280400;-71
2023/08/08 01:25:29;;;;;;;2.80;1.60;;;16.90;49.80;;;;;;20707;6835;119038;-71
2023/08/08 01:27:55;;;;;;;2.37;1.60;;;16.80;49.90;;;;;;20515;6835;307534;-72
2023/08/08 01:30:20;;;;;;;3.07;1.77;;;16.80;49.80;;;;;;20706;6839;117636;-70
2023/08/08 01:32:47;;;;;;;1.93;1.47;;;16.50;50.30;;;;;;20692;6835;117583;-70
2023/08/08 01:35:12;;;;;;;1.87;1.63;;;16.50;50.30;;;;;;20724;6833;117163;-71
2023/08/08 01:37:38;;;;;;;1.55;1.45;;;16.10;50.80;;;;;;20729;6834;117003;-71
2023/08/08 01:40:04;;;;;;;2.87;1.60;;;16.10;50.80;;;;;;20706;6839;120991;-71
2023/08/08 01:42:30;;;;;;;2.73;1.70;;;16.00;51.00;;;;;;20494;6839;277617;-71
2023/08/08 01:44:55;;;;;;;1.73;1.55;;;16.30;51.10;;;;;;20723;6834;117970;-71
2023/08/08 01:47:22;;;;;;;2.10;1.73;;;16.20;51.50;;;;;;20680;6854;117271;-71
2023/08/08 01:49:47;;;;;;;1.70;1.60;;;16.20;50.80;;;;;;20507;6839;337524;-71
2023/08/08 01:52:13;;;;;;;2.03;1.87;;;16.50;50.50;;;;;;20748;6834;119242;-71
2023/08/08 01:54:42;;;;;;;1.70;1.60;;;16.40;50.40;;;;;;20705;6839;117197;-71
2023/08/08 01:57:06;;;;;;;1.75;1.65;;;16.30;50.60;;;;;;20513;6839;308479;-71
2023/08/08 01:59:31;;;;;;;1.70;1.60;;;16.50;50.50;;;;;;20686;6854;117644;-71
2023/08/08 02:01:58;;;;;;;1.58;1.42;;;16.50;50.40;;;;;;20733;6839;117574;-71
2023/08/08 02:04:24;;;;;;;1.50;1.40;;;16.40;50.60;;;;;;20732;6839;118244;-71
2023/08/08 02:06:49;;;;;;;1.92;1.70;;;16.30;50.80;;;;;;20453;6854;308453;-71
2023/08/08 02:09:15;;;;;;;1.53;1.50;;;16.50;50.60;;;;;;20725;6839;117393;-71
2023/08/08 02:11:40;;;;;;;1.50;1.50;;;16.50;50.40;;;;;;20726;6839;117024;-71
2023/08/08 02:14:06;;;;;;;1.83;1.73;;;16.30;50.50;;;;;;20524;6835;306631;-71
2023/08/08 02:16:32;;;;;;;1.90;1.80;;;16.50;50.20;;;;;;20746;6835;117423;-71
2023/08/08 02:18:58;;;;;;;1.75;1.60;;;16.50;50.20;;;;;;20516;6835;307485;-71
2023/08/08 02:21:23;;;;;;;3.70;1.70;;;16.70;49.90;;;;;;20751;6835;117087;-71
2023/08/08 02:23:49;;;;;;;1.80;1.70;;;16.70;50.00;;;;;;20527;6839;312422;-72
2023/08/08 02:26:15;;;;;;;2.00;1.60;;;17.00;49.50;;;;;;20510;6839;311138;-71
2023/08/08 02:28:41;;;;;;;1.70;1.60;;;17.00;49.50;;;;;;20724;6835;150905;-71
2023/08/08 02:31:06;;;;;;;2.67;1.77;;;16.90;49.50;;;;;;20517;6839;307146;-70
2023/08/08 02:33:32;;;;;;;1.90;1.80;;;16.90;49.60;;;;;;20686;6854;119906;-71
2023/08/08 02:35:59;;;;;;;5.10;1.70;;;16.80;49.70;;;;;;20516;6839;282626;-70
2023/08/08 02:38:24;;;;;;;1.40;1.37;;;16.90;49.90;;;;;;20726;6839;117065;-71
2023/08/08 02:40:52;;;;;;;1.70;1.50;;;16.80;49.90;;;;;;20712;6839;117650;-71
2023/08/08 02:43:17;;;;;;;2.40;1.87;;;16.50;50.20;;;;;;20465;6854;308184;-71
2023/08/08 02:45:43;;;;;;;3.33;1.80;;;16.60;50.30;;;;;;20712;6837;118358;-70
2023/08/08 02:48:08;;;;;;;2.00;1.80;;;16.60;50.30;;;;;;20483;6839;282653;-71
2023/08/08 02:50:34;;;;;;;1.98;1.87;;;16.70;50.50;;;;;;20525;6834;310512;-71
2023/08/08 02:52:59;;;;;;;1.85;1.75;;;16.90;50.00;;;;;;20516;6834;277479;-71
2023/08/08 02:55:26;;;;;;;2.00;1.80;;;17.30;49.20;;;;;;20524;6834;277674;-71
2023/08/08 02:57:51;;;;;;;1.60;1.50;;;17.20;49.10;;;;;;20720;6839;117588;-71
2023/08/08 03:00:17;;;;;;;2.47;1.80;;;17.10;49.40;;;;;;20512;6839;279421;-71
2023/08/08 03:02:44;;;;;;;2.70;1.90;;;17.10;49.60;;;;;;20448;6854;342541;-70
2023/08/08 03:05:10;;;;;;;1.70;1.50;;;17.30;49.30;;;;;;20674;6854;117796;-71
2023/08/08 03:07:35;;;;;;;2.40;1.52;;;17.10;49.50;;;;;;20676;6854;117099;-71
2023/08/08 03:10:01;;;;;;;1.80;1.70;;;16.80;49.90;;;;;;20511;6839;308877;-71
2023/08/08 03:12:27;;;;;;;3.33;1.70;;;16.80;50.40;;;;;;20717;6839;117165;-71
2023/08/08 03:14:53;;;;;;;2.00;1.40;;;16.70;50.30;;;;;;20703;6839;117711;-71
2023/08/08 03:17:18;;;;;;;1.80;1.70;;;16.40;50.60;;;;;;20722;6839;117782;-70
2023/08/08 03:19:44;;;;;;;1.80;1.70;;;16.20;50.90;;;;;;20673;6854;117224;-72
2023/08/08 03:22:10;;;;;;;1.83;1.73;;;16.00;51.10;;;;;;20515;6839;316669;-71
2023/08/08 03:24:35;;;;;;;7.80;1.93;;;16.20;51.40;;;;;;20742;6835;117016;-75
2023/08/08 03:27:01;;;;;;;2.40;1.80;;;16.20;51.20;;;;;;20375;6835;307019;-70
2023/08/08 03:29:27;;;;;;;1.55;1.45;;;16.30;51.00;;;;;;20732;6839;117239;-70
2023/08/08 03:31:53;;;;;;;2.60;1.70;;;16.30;51.00;;;;;;20735;6835;117464;-71
2023/08/08 03:34:19;;;;;;;1.50;1.43;;;15.90;52.20;;;;;;20722;6839;121940;-71
2023/08/08 03:36:45;;;;;;;2.12;1.92;;;16.10;51.90;;;;;;20488;6839;306939;-70
2023/08/08 03:39:11;;;;;;;2.97;1.90;;;16.10;51.80;;;;;;20511;6839;280704;-71
2023/08/08 03:41:37;;;;;;;2.25;2.03;;;16.50;51.50;;;;;;20513;6839;280296;-71
2023/08/08 03:44:02;;;;;;;1.62;1.52;;;16.80;51.00;;;;;;20716;6839;121923;-71
2023/08/08 03:46:28;;;;;;;2.57;1.80;;;16.40;51.30;;;;;;20675;6854;117781;-71
2023/08/08 03:48:54;;;;;;;1.70;1.67;;;16.40;51.30;;;;;;20659;6854;127009;-71
2023/08/08 03:51:20;;;;;;;1.70;1.60;;;16.20;51.60;;;;;;20740;6839;117335;-71
2023/08/08 03:53:45;;;;;;;4.93;1.77;;;16.00;51.80;;;;;;20517;6839;278146;-73
2023/08/08 03:56:11;;;;;;;1.70;1.60;;;16.20;51.80;;;;;;20519;6839;294469;-71
2023/08/08 03:58:36;;;;;;;1.62;1.52;;;16.60;51.10;;;;;;20696;6838;117023;-70
2023/08/08 04:01:03;;;;;;;1.98;1.60;;;16.30;51.20;;;;;;20692;6834;117235;-70
2023/08/08 04:03:28;;;;;;;1.57;1.57;;;16.30;51.20;;;;;;20676;6839;116991;-70
2023/08/08 04:05:54;;;;;;;2.75;1.80;;;16.10;51.40;;;;;;20485;6834;313831;-71
2023/08/08 04:08:19;;;;;;;1.57;1.47;;;16.30;51.40;;;;;;20684;6839;118033;-71
2023/08/08 04:10:47;;;;;;;1.90;1.80;;;16.30;51.30;;;;;;20456;6839;315652;-70
2023/08/08 04:13:12;;;;;;;1.67;1.37;;;16.50;50.90;;;;;;20710;6839;117657;-71
2023/08/08 04:15:37;;;;;;;1.80;1.70;;;16.50;50.90;;;;;;20519;6839;319670;-71
2023/08/08 04:18:03;;;;;;;2.53;1.70;;;16.70;50.90;;;;;;20538;6834;276643;-72
2023/08/08 04:20:28;;;;;;;1.70;1.60;;;17.00;50.30;;;;;;20725;6839;117517;-70
2023/08/08 04:22:54;;;;;;;1.75;1.65;;;16.90;50.20;;;;;;20517;6834;277999;-72
2023/08/08 04:25:21;;;;;;;1.80;1.70;;;16.90;50.00;;;;;;20518;6839;278134;-70
2023/08/08 04:27:45;;;;;;;2.00;1.75;;;17.20;49.80;;;;;;20448;6839;341992;-70
2023/08/08 04:30:11;;;;;;;1.60;1.50;;;17.40;49.30;;;;;;20404;6854;308817;-70
2023/08/08 04:32:36;;;;;;;1.60;1.50;;;17.50;49.10;;;;;;20691;6839;117724;-70
2023/08/08 04:35:02;;;;;;;1.90;1.80;;;17.30;49.30;;;;;;20501;6839;342369;-71
2023/08/08 04:37:28;;;;;;;2.57;1.90;;;17.30;49.40;;;;;;20508;6835;307367;-69
2023/08/08 04:39:53;;;;;;;1.37;1.20;;;17.40;49.20;;;;;;20723;6835;118622;-70
2023/08/08 04:42:19;;;;;;;2.30;1.60;;;17.20;49.40;;;;;;20723;6835;123771;-69
2023/08/08 04:44:44;;;;;;;3.33;1.80;;;16.90;49.80;;;;;;20490;6839;307629;-70
2023/08/08 04:47:10;;;;;;;2.00;1.65;;;16.90;50.00;;;;;;20478;6854;279278;-70
2023/08/08 04:49:35;;;;;;;1.87;1.73;;;17.20;49.70;;;;;;20510;6839;306180;-70
2023/08/08 04:52:02;;;;;;;2.05;1.77;;;17.40;49.30;;;;;;20517;6839;279385;-70
2023/08/08 04:54:28;;;;;;;2.80;1.90;;;17.50;49.50;;;;;;20525;6839;289747;-70
2023/08/08 04:56:53;;;;;;;1.95;1.85;;;17.60;48.80;;;;;;20500;6839;278156;-69
2023/08/08 04:59:19;;;;;;;1.43;1.43;;;17.70;48.80;;;;;;20757;6835;118198;-69
2023/08/08 05:01:45;;;;;;;1.70;1.60;;;17.40;49.00;;;;;;20514;6839;281958;-70
2023/08/08 05:04:11;;;;;;;1.50;1.50;;;17.20;49.50;;;;;;20737;6835;119938;-70
2023/08/08 05:06:37;;;;;;;2.87;1.67;;;17.20;49.50;;;;;;20504;6835;306637;-71
2023/08/08 05:09:03;;;;;;;1.40;1.30;;;17.20;49.60;;;;;;20732;6833;117433;-71
2023/08/08 05:11:28;;;;;;;1.47;1.37;;;17.10;49.70;;;;;;20728;6834;122816;-70
2023/08/08 05:13:53;;;;;;;1.65;1.50;;;16.80;50.10;;;;;;20677;6854;117557;-71
2023/08/08 05:16:19;;;;;;;1.77;1.67;;;16.60;50.40;;;;;;20722;6839;116945;-71
2023/08/08 05:18:45;;;;;;;1.70;1.60;;;16.40;50.90;;;;;;20695;6839;122563;-71
2023/08/08 05:21:11;;;;;;;1.70;1.60;;;16.30;50.80;;;;;;20724;6839;117470;-71
2023/08/08 05:23:36;;;;;;;1.73;1.37;;;16.30;51.10;;;;;;20688;6854;120983;-70
2023/08/08 05:26:03;;;;;;;1.70;1.60;;;16.20;51.20;;;;;;20520;6839;307586;-70
2023/08/08 05:28:28;;;;;;;2.10;1.50;;;16.50;51.20;;;;;;20677;6854;123114;-72
2023/08/08 05:30:54;;;;;;;2.78;1.50;;;16.60;50.90;;;;;;20708;6839;117424;-72
2023/08/08 05:33:19;;;;;;;1.70;1.60;;;16.40;50.90;;;;;;20532;6834;307407;-70
2023/08/08 05:35:45;;;;;;;2.25;1.90;;;16.70;51.20;;;;;;20724;6839;117104;-71
2023/08/08 05:38:10;;;;;;;1.60;1.50;;;16.70;51.00;;;;;;20728;6839;119591;-71
2023/08/08 05:40:37;;;;;;;1.62;1.52;;;16.80;51.10;;;;;;20519;6837;291665;-71
2023/08/08 05:43:03;;;;;;;1.70;1.60;;;17.20;50.60;;;;;;20530;6839;308503;-71
2023/08/08 05:45:29;;;;;;;1.47;1.37;;;17.20;50.50;;;;;;20762;6839;117671;-71
2023/08/08 05:47:55;;;;;;;2.00;1.90;;;17.20;50.40;;;;;;20758;6839;117156;-70
2023/08/08 05:50:21;;;;;;;1.50;1.40;;;17.00;50.60;;;;;;20765;6837;117102;-70
2023/08/08 05:52:46;;;;;;;1.67;1.50;;;16.90;50.90;;;;;;20741;6839;153237;-70
2023/08/08 05:55:12;;;;;;;1.85;1.73;;;16.80;51.10;;;;;;20550;6839;282093;-72
2023/08/08 05:57:39;;;;;;;1.97;1.80;;;17.10;50.90;;;;;;20758;6839;117048;-71
2023/08/08 06:00:05;;;;;;;3.65;2.20;;;17.20;50.80;;;;;;20513;6839;303669;-71
2023/08/08 06:02:31;;;;;;;2.00;1.90;;;17.80;50.70;;;;;;20515;6839;278547;-70
2023/08/08 06:04:56;;;;;;;2.97;1.53;;;17.80;50.70;;;;;;20726;6835;117157;-70
2023/08/08 06:07:22;;;;;;;1.53;1.53;;;17.80;50.40;;;;;;20749;6835;117079;-71
2023/08/08 06:09:47;;;;;;;2.00;1.67;;;17.60;50.60;;;;;;20730;6839;117459;-70
2023/08/08 06:12:13;;;;;;;2.40;1.73;;;17.40;50.80;;;;;;20514;6839;278773;-70
2023/08/08 06:14:39;;;;;;;1.90;1.80;;;17.50;50.70;;;;;;20449;6854;313341;-71
2023/08/08 06:17:05;;;;;;;2.57;2.23;;;17.70;49.80;;;;;;20728;6839;123578;-70
2023/08/08 06:19:32;;;;;;;1.60;1.50;;;17.70;49.80;;;;;;20729;6839;117515;-70
2023/08/08 06:21:57;;;;;;;1.83;1.73;;;17.50;49.70;;;;;;20517;6837;309191;-70
2023/08/08 06:24:23;;;;;;;2.43;1.60;;;17.50;50.40;;;;;;20686;6854;118410;-70
2023/08/08 06:26:50;;;;;;;2.83;1.67;;;17.60;50.50;;;;;;20707;6839;117543;-70
2023/08/08 06:29:15;;;;;;;1.80;1.63;;;17.40;50.70;;;;;;20732;6839;118099;-70
2023/08/08 06:31:41;;;;;;;2.00;1.70;;;17.30;50.90;;;;;;20529;6839;279281;-70
2023/08/08 06:34:06;;;;;;;2.58;1.87;;;17.60;50.50;;;;;;20532;6834;277158;-70
2023/08/08 06:36:32;;;;;;;2.10;1.80;;;18.00;49.90;;;;;;20526;6839;278099;-70
2023/08/08 06:38:57;;;;;;;2.00;1.67;;;18.50;49.20;;;;;;20729;6834;121054;-71
2023/08/08 06:41:23;;;;;;;1.73;1.60;;;18.50;49.30;;;;;;20528;6834;307431;-71
2023/08/08 06:43:51;;;;;;;1.40;1.30;;;18.90;49.50;;;;;;20745;6834;117494;-71
2023/08/08 06:46:16;;;;;;;1.43;1.37;;;18.90;49.50;;;;;;20723;6839;117088;-70
2023/08/08 06:48:42;;;;;;;1.98;1.77;;;19.00;49.80;;;;;;20502;6839;296823;-70
2023/08/08 06:51:08;;;;;;;1.90;1.60;;;19.40;47.90;;;;;;20524;6839;292479;-70
2023/08/08 06:53:33;;;;;;;2.05;1.50;;;20.00;46.60;;;;;;20368;6845;284336;-71
2023/08/08 06:55:59;;;;;;;1.62;1.52;;;20.50;45.70;;;;;;20510;6834;278502;-73
2023/08/08 06:58:24;;;;;;;1.73;1.60;;;20.80;45.30;;;;;;20452;6839;340168;-71
2023/08/08 07:00:50;;;;;;;1.87;1.75;;;21.10;45.00;;;;;;20504;6835;311220;-70
2023/08/08 07:03:15;;;;;;;1.63;1.50;;;21.40;44.40;;;;;;20526;6835;336760;-71
2023/08/08 07:05:41;;;;;;;2.37;1.60;;;21.70;44.00;;;;;;20741;6835;117554;-71
2023/08/08 07:08:08;;;;;;;1.60;1.50;;;21.80;44.60;;;;;;20529;6835;307600;-71
2023/08/08 07:10:32;;;;;;;1.93;1.60;;;21.90;44.70;;;;;;20727;6839;117178;-71
2023/08/08 07:12:58;;;;;;;1.80;1.70;;;21.90;44.90;;;;;;20502;6839;306307;-70
2023/08/08 07:15:23;;;;;;;1.70;1.60;;;22.00;44.00;;;;;;20524;6839;305128;-71
2023/08/08 07:17:49;;;;;;;1.67;1.55;;;22.30;43.40;;;;;;20683;6854;117555;-71
2023/08/08 07:20:15;;;;;;;1.90;1.63;;;22.10;44.30;;;;;;20727;6839;117216;-71
2023/08/08 07:22:41;;;;;;;3.10;1.67;;;22.10;44.30;;;;;;20514;6835;278048;-71
2023/08/08 07:25:07;;;;;;;1.70;1.50;;;22.20;44.60;;;;;;20747;6835;117780;-71
2023/08/08 07:27:32;;;;;;;1.80;1.40;;;22.30;44.90;;;;;;20724;6839;117576;-71
2023/08/08 07:29:58;;;;;;;3.03;1.30;;;22.10;45.30;;;;;;20736;6839;117323;-71
2023/08/08 07:32:23;;;;;;;2.50;1.62;;;22.10;45.40;;;;;;20521;6838;277622;-71
2023/08/08 07:34:49;;;;;;;1.65;1.50;;;22.30;44.40;;;;;;20519;6834;341004;-71
2023/08/08 07:37:14;;;;;;;2.75;1.50;;;22.70;43.60;;;;;;20753;6834;119356;-71
2023/08/08 07:39:40;;;;;;;1.98;1.77;;;22.80;43.70;;;;;;20525;6834;306906;-70
2023/08/08 07:42:05;;;;;;;2.37;1.52;;;23.00;43.10;;;;;;20752;6834;121385;-71
2023/08/08 07:44:34;;;;;;;4.93;1.40;;;23.10;43.20;;;;;;20731;6839;119354;-71
2023/08/08 07:46:57;;;;;;;1.83;1.73;;;23.00;43.90;;;;;;20482;6839;307752;-71
2023/08/08 07:49:22;;;;;;;3.08;1.90;;;23.30;42.10;;;;;;20520;6839;337179;-71
2023/08/08 07:51:48;;;;;;;1.70;1.60;;;23.60;41.10;;;;;;20728;6839;117447;-71
2023/08/08 07:54:13;;;;;;;2.60;1.62;;;23.70;41.40;;;;;;20471;6854;313353;-70
2023/08/08 07:56:39;;;;;;;1.87;1.57;;;23.80;41.20;;;;;;20710;6839;117549;-71
2023/08/08 07:59:05;;;;;;;2.72;1.67;;;23.80;41.70;;;;;;20517;6839;278094;-71
2023/08/08 08:01:30;;;;;;;1.70;1.53;;;24.20;42.20;;;;;;20721;6839;117984;-72
2023/08/08 08:03:56;;;;;;;2.60;1.70;;;24.30;41.70;;;;;;20512;6839;308007;-70
2023/08/08 08:06:21;;;;;;;1.60;1.50;;;24.50;40.90;;;;;;20724;6839;123367;-70
2023/08/08 08:08:47;;;;;;;2.50;1.70;;;24.40;41.20;;;;;;20711;6839;119447;-71
2023/08/08 08:11:15;;;;;;;2.23;1.53;;;24.40;41.20;;;;;;20473;6854;300761;-70
2023/08/08 08:13:39;;;;;;;1.80;1.70;;;24.60;40.00;;;;;;20507;6839;307186;-70
2023/08/08 08:16:05;;;;;;;2.47;1.60;;;25.20;40.20;;;;;;20727;6839;117541;-71
2023/08/08 08:18:30;;;;;;;2.43;1.60;;;25.10;40.10;;;;;;20532;6835;306986;-71
2023/08/08 08:20:56;;;;;;;2.17;1.57;;;25.30;37.70;;;;;;20713;6839;209330;-71
2023/08/08 08:23:21;;;;;;;2.75;1.83;;;25.30;38.10;;;;;;20539;6835;307009;-70
2023/08/08 08:25:48;;;;;;;1.52;1.42;;;25.40;37.60;;;;;;20744;6835;118000;-71
2023/08/08 08:28:13;;;;;;;1.80;1.70;;;25.30;38.10;;;;;;20515;6839;301732;-71
2023/08/08 08:30:38;;;;;;;1.43;1.10;;;25.40;37.60;;;;;;20708;6839;119967;-71
2023/08/08 08:33:07;;;;;;;1.60;1.40;;;25.30;38.20;;;;;;20722;6839;120009;-71
2023/08/08 08:35:30;;;;;;;2.43;1.47;;;25.30;38.20;;;;;;20733;6835;117139;-70
2023/08/08 08:37:56;;;;;;;2.00;1.67;;;25.20;38.30;;;;;;20520;6837;336510;-71
2023/08/08 08:40:21;;;;;;;3.10;1.37;;;25.30;36.60;;;;;;20731;6839;120263;-70
2023/08/08 08:42:47;;;;;;;3.20;1.60;;;25.10;37.70;;;;;;20728;6835;119262;-71
2023/08/08 08:45:14;;;;;;;3.20;1.65;;;25.00;37.60;;;;;;20508;6838;311633;-71
2023/08/08 08:47:41;;;;;;;2.80;1.40;;;25.20;37.10;;;;;;20528;6834;304522;-70
2023/08/08 08:50:07;;;;;;;6.30;1.20;;;25.40;35.90;;;;;;20749;6834;117008;-71
2023/08/08 08:52:32;;;;;;;2.23;2.03;;;25.40;36.80;;;;;;20513;6839;282359;-71
2023/08/08 08:54:57;;;;;;;2.00;1.80;;;25.40;36.20;;;;;;20498;6839;335223;-71
2023/08/08 08:57:23;;;;;;;1.70;1.30;;;26.00;36.90;;;;;;20466;6854;294635;-71
2023/08/08 08:59:49;;;;;;;2.67;1.53;;;26.00;36.90;;;;;;20729;6839;119537;-71
2023/08/08 09:02:14;;;;;;;3.58;1.60;;;26.00;37.30;;;;;;20520;6839;347828;-70
2023/08/08 09:04:41;;;;;;;1.52;1.27;;;26.20;36.30;;;;;;20731;6834;150311;-71
2023/08/08 09:07:06;;;;;;;2.40;1.70;;;26.20;36.30;;;;;;20733;6839;117533;-72
2023/08/08 09:09:32;;;;;;;1.87;1.50;;;26.00;36.00;;;;;;20746;6834;117532;-70
2023/08/08 09:11:57;;;;;;;1.70;1.57;;;25.80;35.90;;;;;;20719;6839;117185;-72
2023/08/08 09:14:23;;;;;;;1.53;1.40;;;25.60;36.00;;;;;;20749;6834;117117;-73
2023/08/08 09:16:48;;;;;;;1.70;1.42;;;25.50;36.20;;;;;;20483;6839;310416;-71
2023/08/08 09:19:14;;;;;;;2.40;1.67;;;25.60;34.40;;;;;;20743;6834;117242;-71
2023/08/08 09:21:40;;;;;;;1.75;1.62;;;25.70;35.20;;;;;;20521;6837;307339;-70
2023/08/08 09:24:06;;;;;;;1.77;1.65;;;25.80;35.40;;;;;;20517;6839;278011;-71
2023/08/08 09:26:31;;;;;;;3.30;1.60;;;26.10;35.00;;;;;;20738;6835;120067;-71
2023/08/08 09:28:56;;;;;;;2.27;2.03;;;26.10;35.30;;;;;;20517;6835;277642;-71
2023/08/08 09:31:22;;;;;;;1.70;1.60;;;26.30;35.50;;;;;;20527;6835;336447;-71
2023/08/08 09:33:48;;;;;;;3.87;1.50;;;26.60;34.90;;;;;;20735;6835;119665;-70
2023/08/08 09:36:16;;;;;;;1.80;1.67;;;26.60;34.90;;;;;;20527;6835;311720;-71
2023/08/08 09:38:42;;;;;;;1.60;1.50;;;26.60;34.00;;;;;;20513;6835;307799;-71
2023/08/08 09:41:07;;;;;;;1.65;1.55;;;26.80;33.20;;;;;;20747;6835;119708;-71
2023/08/08 09:43:34;;;;;;;3.20;1.90;;;26.40;34.40;;;;;;20735;6839;117114;-72
2023/08/08 09:45:59;;;;;;;3.87;1.67;;;26.40;34.30;;;;;;20741;6835;117105;-71
2023/08/08 09:48:29;;;;;;;2.70;1.53;;;26.00;35.10;;;;;;20740;6839;117151;-72
2023/08/08 09:50:54;;;;;;;2.95;1.50;;;26.00;35.10;;;;;;20521;6835;308775;-71
2023/08/08 09:53:20;;;;;;;2.43;1.53;;;26.10;34.20;;;;;;20733;6839;117841;-71
2023/08/08 09:55:45;;;;;;;1.97;1.60;;;26.20;35.10;;;;;;20737;6833;122342;-71
2023/08/08 09:58:11;;;;;;;1.57;1.47;;;26.10;35.20;;;;;;20467;6854;308160;-71
2023/08/08 10:00:37;;;;;;;4.15;1.80;;;26.30;35.40;;;;;;20502;6839;278493;-73
2023/08/08 10:03:04;;;;;;;1.73;1.33;;;26.60;35.70;;;;;;20718;6839;117352;-72
2023/08/08 10:05:29;;;;;;;1.98;1.62;;;26.60;35.00;;;;;;20529;6834;311592;-71
2023/08/08 10:07:56;;;;;;;1.60;1.50;;;26.70;33.50;;;;;;20723;6839;121639;-74
2023/08/08 10:10:21;;;;;;;1.62;1.50;;;26.60;34.00;;;;;;20517;6834;308600;-71
2023/08/08 10:12:46;;;;;;;1.60;1.50;;;26.80;34.20;;;;;;20706;6839;145935;-71
2023/08/08 10:15:12;;;;;;;1.53;1.23;;;26.90;35.00;;;;;;20535;6834;310603;-72
2023/08/08 10:17:39;;;;;;;1.60;1.50;;;27.10;34.00;;;;;;20722;6839;117196;-72
2023/08/08 10:20:11;;;;;;;1.40;1.30;;;27.20;34.10;;;;;;20529;6834;307436;-72
2023/08/08 10:22:30;;;;;;;1.40;1.30;;;27.20;32.70;;;;;;20684;6839;119997;-72
2023/08/08 10:24:56;;;;;;;2.97;1.47;;;27.20;33.10;;;;;;20724;6834;117415;-71
2023/08/08 10:27:28;;;;;;;2.20;1.50;;;27.00;33.40;;;;;;20738;6834;117409;-71
2023/08/08 10:29:53;;;;;;;2.83;1.60;;;26.80;33.70;;;;;;20731;6834;116966;-71
2023/08/08 10:32:22;;;;;;;2.20;1.40;;;26.60;34.10;;;;;;20715;6834;124107;-73
2023/08/08 10:34:48;;;;;;;1.70;1.40;;;26.80;34.40;;;;;;20450;6839;279344;-72
2023/08/08 10:37:15;;;;;;;1.53;1.40;;;26.70;34.60;;;;;;20460;6839;315133;-72
2023/08/08 10:39:50;;;;;;;1.63;1.53;;;27.50;33.40;;;;;;20686;6835;116958;-73
2023/08/08 10:42:15;;;;;;;1.80;1.50;;;27.40;33.30;;;;;;20380;6839;278819;-72
2023/08/08 10:44:42;;;;;;;1.60;1.50;;;27.70;32.20;;;;;;20509;6835;310240;-71
2023/08/08 10:47:07;;;;;;;1.48;1.45;;;28.00;31.90;;;;;;20748;6835;117244;-72
2023/08/08 10:49:33;;;;;;;1.80;1.70;;;28.00;31.90;;;;;;20514;6839;278480;-72
2023/08/08 10:51:58;;;;;;;1.73;1.57;;;28.00;31.80;;;;;;20722;6839;118201;-71
2023/08/08 10:54:28;;;;;;;2.05;1.75;;;28.00;32.50;;;;;;20468;6839;308070;-71
2023/08/08 10:56:53;;;;;;;2.07;1.57;;;28.10;33.00;;;;;;20691;6835;120951;-71
2023/08/08 10:59:22;;;;;;;1.60;1.50;;;28.20;30.80;;;;;;20508;6839;307588;-73
2023/08/08 11:01:48;;;;;;;1.30;1.20;;;28.20;30.80;;;;;;20501;6839;310305;-71
2023/08/08 11:04:14;;;;;;;2.17;1.50;;;28.40;30.70;;;;;;20531;6835;282162;-71
2023/08/08 11:06:39;;;;;;;1.93;1.70;;;28.40;30.70;;;;;;20489;6838;311762;-72
2023/08/08 11:09:05;;;;;;;1.50;1.40;;;28.50;32.50;;;;;;20533;6834;332154;-72
2023/08/08 11:11:42;;;;;;;1.47;1.37;;;28.50;30.40;;;;;;20742;6834;116980;-71
2023/08/08 11:14:17;;;;;;;1.73;1.63;;;28.50;30.40;;;;;;20748;6834;117063;-72
2023/08/08 11:16:43;;;;;;;1.77;1.67;;;28.10;31.60;;;;;;20689;6839;119745;-71
2023/08/08 11:19:08;;;;;;;1.77;1.40;;;27.70;31.70;;;;;;20746;6834;119256;-71
2023/08/08 11:21:37;;;;;;;1.50;1.40;;;27.50;32.30;;;;;;20462;6854;307270;-71
2023/08/08 11:24:04;;;;;;;2.40;1.67;;;27.50;31.10;;;;;;20724;6839;117339;-71
2023/08/08 11:26:31;;;;;;;1.77;1.50;;;27.50;31.50;;;;;;20726;6839;119742;-72
2023/08/08 11:28:55;;;;;;;1.60;1.50;;;27.40;31.70;;;;;;20703;6839;117254;-72
2023/08/08 11:31:21;;;;;;;2.62;1.55;;;27.30;32.10;;;;;;20535;6834;277484;-71
2023/08/08 11:33:46;;;;;;;1.80;1.70;;;27.50;31.20;;;;;;20739;6839;117587;-71
2023/08/08 11:36:12;;;;;;;1.55;1.42;;;27.60;31.30;;;;;;20532;6834;279762;-72
2023/08/08 11:38:38;;;;;;;1.80;1.50;;;28.10;30.90;;;;;;20500;6839;307582;-71
2023/08/08 11:41:03;;;;;;;3.73;1.60;;;28.10;30.90;;;;;;20738;6834;121006;-71
2023/08/08 11:43:29;;;;;;;1.70;1.60;;;28.20;30.80;;;;;;20728;6839;119787;-72
2023/08/08 11:45:55;;;;;;;1.37;1.37;;;28.20;30.90;;;;;;20743;6835;117359;-72
2023/08/08 11:48:20;;;;;;;3.20;1.50;;;28.00;30.40;;;;;;20722;6839;120109;-71
2023/08/08 11:50:46;;;;;;;1.80;1.60;;;27.90;30.70;;;;;;20509;6835;306887;-73
2023/08/08 11:53:12;;;;;;;1.70;1.50;;;28.00;30.00;;;;;;20748;6835;121118;-72
2023/08/08 11:55:38;;;;;;;1.30;1.30;;;28.00;30.00;;;;;;20742;6835;122942;-72
2023/08/08 11:58:05;;;;;;;1.50;1.40;;;27.80;29.90;;;;;;20537;6835;306926;-72
2023/08/08 12:00:30;;;;;;;3.03;1.20;;;27.60;29.80;;;;;;20714;6839;119377;-73
2023/08/08 12:02:55;;;;;;;1.93;1.83;;;27.50;29.80;;;;;;20723;6835;122977;-71
2023/08/08 12:05:22;;;;;;;1.67;1.57;;;27.40;30.60;;;;;;20685;6854;117214;-72
2023/08/08 12:07:46;;;;;;;1.62;1.52;;;27.30;31.50;;;;;;20514;6839;278123;-72
2023/08/08 12:10:19;;;;;;;1.83;1.67;;;27.50;31.70;;;;;;20516;6839;313399;-72
2023/08/08 12:12:44;;;;;;;1.40;1.30;;;27.70;29.80;;;;;;20659;6854;117414;-72
2023/08/08 12:15:11;;;;;;;1.77;1.43;;;27.70;30.30;;;;;;20646;6839;117406;-72
2023/08/08 12:17:37;;;;;;;1.60;1.50;;;27.30;30.50;;;;;;20749;6835;117089;-73
2023/08/08 12:20:03;;;;;;;1.70;1.60;;;27.30;30.50;;;;;;20520;6838;319193;-72
2023/08/08 12:22:28;;;;;;;1.65;1.55;;;27.40;29.70;;;;;;20523;6839;278224;-72
2023/08/08 12:24:54;;;;;;;1.83;1.30;;;27.60;29.00;;;;;;20735;6834;117196;-72
2023/08/08 12:27:20;;;;;;;1.77;1.53;;;27.50;30.00;;;;;;20744;6834;117271;-72